Main page
METAR-TAF:

METAR-TAF

Airports :

Teesside International Airport

Durham, England

latitude: 54-31N, longitude: 001-25W, elevation: 37 m

Current weather observation

The report was made 2 hours and 53 minutes ago, at 21:50 UTC
Wind 18 kt from the West/Southwest
Temperature 4°C
Humidity 70%
Pressure 1005 hPa
Visibility 10 km or more
Few clouds at a height of 4500 ft

METAR: EGNV 172150Z 24018KT 9999 FEW045 04/M01 Q1005

Time: 00:43 (00:43 UTC)

Forecast

The report was made 7 hours and 47 minutes ago, at 16:56 UTC
Forecast valid from 17 at 18 UTC to 17 at 22 UTC
Wind 20 kt from the West/Southwest with gusts up to 35 kt
Visibility 10 km or more
Few clouds at a height of 2000 ft
Probability 30% :
Temporary
from 17 at 18 UTC to 17 at 22 UTC
Visibility: 6000 m
Broken clouds at a height of 1400 ft
rain showers

TAF: EGNV 171656Z 1718/1722 25020G35KT 9999 FEW020 PROB30 TEMPO 1718/1722 6000 SHRA BKN014

Weather observations and forecasts of more than 4000 airports (METAR and TAF reports).

The available stations are represented by yellow and red dots on the map.

Hover mouse over dot to see the name of the station.

Then click to see weather observations and forecasts.

To change the map : click on the green buttons with a black cross to zoom in, on the green button with a dash to zoom out, or on the green arrows for adjacent maps.


METAR-TAF: